createdAt,value
2022-08-11T00:01:53.244Z,41.30
2022-08-11T00:04:22.061Z,41.10
2022-08-11T00:06:49.763Z,41.10
2022-08-11T00:09:19.528Z,41.10
2022-08-11T00:11:49.141Z,40.90
2022-08-11T00:14:19.694Z,40.80
2022-08-11T00:16:55.011Z,40.60
2022-08-11T00:20:14.007Z,40.30
2022-08-11T00:22:11.499Z,40.60
2022-08-11T00:24:53.740Z,40.50
2022-08-11T00:27:33.215Z,40.20
2022-08-11T00:30:02.283Z,39.90
2022-08-11T00:32:29.983Z,40.00
2022-08-11T00:35:51.815Z,40.00
2022-08-11T00:37:46.591Z,39.90
2022-08-11T00:40:18.043Z,39.70
2022-08-11T00:42:49.541Z,40.40
2022-08-11T00:45:23.340Z,39.60
2022-08-11T00:48:00.202Z,39.30
2022-08-11T00:50:31.070Z,39.30
2022-08-11T00:53:10.662Z,39.30
2022-08-11T00:56:10.875Z,38.70
2022-08-11T00:59:34.495Z,38.70
2022-08-11T01:02:13.750Z,38.50
2022-08-11T01:05:14.898Z,38.60
2022-08-11T01:08:11.490Z,38.20
2022-08-11T01:10:49.823Z,38.30
2022-08-11T01:13:30.657Z,38.40
2022-08-11T01:16:35.755Z,38.80
2022-08-11T01:20:39.763Z,37.70
2022-08-11T01:23:07.418Z,37.60
2022-08-11T01:25:56.705Z,37.40
2022-08-11T01:29:14.540Z,37.30
2022-08-11T01:31:58.543Z,37.20
2022-08-11T01:35:04.551Z,37.30
2022-08-11T01:38:26.215Z,36.90
2022-08-11T01:41:04.392Z,36.70
2022-08-11T01:44:14.535Z,37.20
2022-08-11T01:46:46.008Z,36.90
2022-08-11T01:50:05.818Z,36.90
2022-08-11T01:52:16.222Z,37.00
2022-08-11T01:54:45.662Z,36.60
2022-08-11T01:57:21.630Z,36.80
2022-08-11T01:59:51.423Z,36.70
2022-08-11T02:02:45.948Z,36.50
2022-08-11T02:05:21.963Z,36.40
2022-08-11T02:07:58.267Z,36.40
2022-08-11T02:10:50.605Z,36.30
2022-08-11T02:13:35.516Z,36.40
2022-08-11T02:16:09.569Z,36.20
2022-08-11T02:18:52.322Z,36.30
2022-08-11T02:21:49.349Z,36.30
2022-08-11T02:24:21.687Z,36.30
2022-08-11T02:26:51.346Z,36.70
2022-08-11T02:29:21.853Z,36.20
2022-08-11T02:32:28.678Z,36.10
2022-08-11T02:35:02.613Z,36.00
2022-08-11T02:37:53.807Z,36.10
2022-08-11T02:40:32.240Z,35.90
2022-08-11T02:43:10.135Z,35.90
2022-08-11T02:45:49.932Z,35.90
2022-08-11T02:48:40.231Z,35.90
2022-08-11T02:51:13.578Z,36.00
2022-08-11T02:53:56.145Z,35.90
2022-08-11T02:56:32.352Z,36.00
2022-08-11T02:59:20.236Z,36.00
2022-08-11T03:01:53.084Z,36.10
2022-08-11T03:04:37.345Z,36.00
2022-08-11T03:07:29.112Z,36.00
2022-08-11T03:10:04.285Z,36.00
2022-08-11T03:12:53.806Z,36.00
2022-08-11T03:15:41.276Z,36.00
2022-08-11T03:18:16.990Z,36.10
2022-08-11T03:20:46.436Z,36.00
2022-08-11T03:23:28.320Z,36.00
2022-08-11T03:25:58.619Z,36.10
2022-08-11T03:28:31.366Z,36.10
2022-08-11T03:31:07.969Z,36.00
2022-08-11T03:34:00.514Z,36.00
2022-08-11T03:37:17.702Z,36.10
2022-08-11T03:39:56.856Z,36.70
2022-08-11T03:42:28.012Z,36.20
2022-08-11T03:45:02.998Z,36.20
2022-08-11T03:47:58.300Z,36.30
2022-08-11T03:50:33.278Z,36.30
2022-08-11T03:53:07.456Z,36.50
2022-08-11T03:55:48.692Z,36.50
2022-08-11T03:58:41.851Z,36.50
2022-08-11T04:01:36.557Z,36.70
2022-08-11T04:04:24.981Z,36.70
2022-08-11T04:07:26.446Z,36.70
2022-08-11T04:10:28.433Z,36.70
2022-08-11T04:13:34.361Z,36.70
2022-08-11T04:16:33.364Z,36.80
2022-08-11T04:19:31.026Z,36.70
2022-08-11T04:22:17.270Z,36.70
2022-08-11T04:25:11.945Z,36.90
2022-08-11T04:28:05.798Z,36.90
2022-08-11T04:30:41.893Z,36.80
2022-08-11T04:33:56.570Z,36.90
2022-08-11T04:36:59.779Z,36.90
2022-08-11T04:39:34.952Z,36.90
2022-08-11T04:42:37.069Z,37.00
2022-08-11T04:45:30.200Z,37.00
2022-08-11T04:48:33.171Z,37.10
2022-08-11T04:51:30.966Z,37.10
2022-08-11T04:54:19.266Z,37.20
2022-08-11T04:57:05.419Z,37.30
2022-08-11T05:00:07.995Z,37.30
2022-08-11T05:03:15.661Z,37.20
2022-08-11T05:06:18.183Z,37.50
2022-08-11T05:09:04.838Z,37.50
2022-08-11T05:12:05.361Z,37.50
2022-08-11T05:14:54.642Z,37.60
2022-08-11T05:17:49.137Z,37.70
2022-08-11T05:20:34.577Z,37.70
2022-08-11T05:23:22.663Z,37.80
2022-08-11T05:26:46.631Z,37.80
2022-08-11T05:29:21.026Z,37.90
2022-08-11T05:32:09.725Z,37.80
2022-08-11T05:34:54.006Z,37.70
2022-08-11T05:37:27.163Z,37.70
2022-08-11T05:40:14.898Z,37.80
2022-08-11T05:43:07.026Z,37.80
2022-08-11T05:46:03.598Z,37.70
2022-08-11T05:48:52.440Z,37.80
2022-08-11T05:51:37.842Z,37.90
2022-08-11T05:54:28.775Z,37.80
2022-08-11T05:56:58.581Z,37.80
2022-08-11T05:59:28.281Z,37.90
2022-08-11T06:02:01.432Z,37.80
2022-08-11T06:04:29.402Z,37.90
2022-08-11T06:06:58.128Z,38.00
2022-08-11T06:09:32.575Z,38.00
2022-08-11T06:12:02.756Z,38.00
2022-08-11T06:14:31.956Z,38.00
2022-08-11T06:17:00.760Z,38.00
2022-08-11T06:19:35.781Z,38.00
2022-08-11T06:22:05.122Z,38.00
2022-08-11T06:24:33.282Z,38.00
2022-08-11T06:27:12.254Z,38.10
2022-08-11T06:29:55.394Z,38.10
2022-08-11T06:32:25.441Z,38.00
2022-08-11T06:35:11.317Z,38.10
2022-08-11T06:37:49.091Z,38.10
2022-08-11T06:40:30.122Z,38.20
2022-08-11T06:43:02.106Z,38.20
2022-08-11T06:45:34.441Z,38.30
2022-08-11T06:48:02.925Z,38.30
2022-08-11T06:50:48.195Z,38.30
2022-08-11T06:53:18.628Z,38.30
2022-08-11T06:56:04.855Z,39.00
2022-08-11T06:58:51.519Z,38.40
2022-08-11T07:01:26.331Z,38.40
2022-08-11T07:03:57.320Z,38.30
2022-08-11T07:06:50.689Z,38.40
2022-08-11T07:10:24.520Z,38.40
2022-08-11T07:13:09.713Z,38.30
2022-08-11T07:16:10.451Z,38.40
2022-08-11T07:18:58.881Z,38.40
2022-08-11T07:22:02.291Z,38.30
2022-08-11T07:25:01.279Z,38.30
2022-08-11T07:27:55.771Z,38.30
2022-08-11T07:30:23.505Z,38.90
2022-08-11T07:32:52.062Z,38.40
2022-08-11T07:35:24.641Z,38.30
2022-08-11T07:38:01.590Z,38.30
2022-08-11T07:40:30.299Z,38.30
2022-08-11T07:42:57.988Z,38.40
2022-08-11T07:45:43.380Z,38.30
2022-08-11T07:48:28.849Z,38.40
2022-08-11T07:51:15.616Z,38.40
2022-08-11T07:54:03.352Z,38.40
2022-08-11T07:56:46.530Z,38.40
2022-08-11T08:00:03.858Z,38.50
2022-08-11T08:02:44.414Z,38.40
2022-08-11T08:05:29.821Z,38.40
2022-08-11T08:08:17.299Z,38.40
2022-08-11T08:11:03.196Z,38.40
2022-08-11T08:13:48.895Z,38.40
2022-08-11T08:16:35.833Z,38.40
2022-08-11T08:19:03.558Z,38.40
2022-08-11T08:21:32.151Z,38.40
2022-08-11T08:24:01.215Z,38.40
2022-08-11T08:26:58.185Z,38.40
2022-08-11T08:29:43.721Z,38.40
2022-08-11T08:32:11.525Z,38.50
2022-08-11T08:34:40.129Z,38.50
2022-08-11T08:37:16.221Z,38.40
2022-08-11T08:39:58.489Z,38.50
2022-08-11T08:42:27.275Z,38.50
2022-08-11T08:44:58.772Z,38.50
2022-08-11T08:47:42.982Z,38.40
2022-08-11T08:50:16.461Z,38.50
2022-08-11T08:52:48.593Z,38.50
2022-08-11T08:55:19.203Z,38.40
2022-08-11T08:57:47.433Z,38.50
2022-08-11T09:00:19.410Z,38.40
2022-08-11T13:24:01.143Z,32.10
2022-08-11T13:26:48.529Z,32.40
2022-08-11T13:29:21.699Z,33.60
2022-08-11T13:31:49.717Z,33.90
2022-08-11T13:34:18.036Z,34.10
2022-08-11T13:36:45.868Z,33.80
2022-08-11T13:39:14.997Z,34.30
2022-08-11T13:41:44.624Z,34.40
2022-08-11T13:44:15.892Z,34.50
2022-08-11T13:46:45.980Z,33.50
2022-08-11T13:49:16.044Z,33.90
2022-08-11T13:51:43.848Z,34.90
2022-08-11T13:54:13.097Z,34.40
2022-08-11T13:56:43.825Z,35.60
2022-08-11T13:59:11.736Z,34.60
2022-08-11T14:02:20.770Z,35.50
2022-08-11T14:04:33.384Z,36.20
2022-08-11T14:07:03.262Z,36.00
2022-08-11T14:09:33.480Z,35.80
2022-08-11T14:12:24.397Z,35.30
2022-08-11T14:14:55.392Z,35.80
2022-08-11T14:17:44.190Z,36.00
2022-08-11T14:20:38.273Z,35.80
2022-08-11T14:22:58.310Z,36.00
2022-08-11T14:26:01.167Z,36.50
2022-08-11T14:28:29.527Z,36.60
2022-08-11T14:31:02.525Z,35.60
2022-08-11T14:33:58.745Z,36.20
2022-08-11T14:36:17.956Z,36.30
2022-08-11T14:38:45.695Z,35.80
2022-08-11T14:41:31.168Z,36.30
2022-08-11T14:44:18.044Z,36.60
2022-08-11T14:47:23.948Z,36.80
2022-08-11T14:50:05.012Z,36.60
2022-08-11T14:52:40.156Z,36.60
2022-08-11T14:55:26.309Z,36.60
2022-08-11T14:57:56.328Z,35.60
2022-08-11T15:00:34.174Z,35.50
2022-08-11T15:03:10.063Z,34.60
2022-08-11T15:05:38.790Z,34.50
2022-08-11T15:08:06.732Z,34.70
2022-08-11T15:10:34.479Z,34.90
2022-08-11T15:13:02.245Z,34.90
2022-08-11T15:15:47.497Z,35.00
2022-08-11T15:18:16.956Z,35.20
2022-08-11T15:21:02.273Z,35.50
2022-08-11T15:23:47.851Z,36.00
2022-08-11T15:26:17.514Z,36.30
2022-08-11T15:29:04.481Z,36.40
2022-08-11T15:31:55.379Z,36.30
2022-08-11T15:34:44.117Z,36.60
2022-08-11T15:37:31.433Z,36.90
2022-08-11T15:40:32.817Z,37.30
2022-08-11T15:43:20.443Z,38.20
2022-08-11T15:45:49.068Z,38.40
2022-08-11T15:48:19.762Z,38.30
2022-08-11T15:50:51.464Z,38.70
2022-08-11T15:53:21.045Z,39.00
2022-08-11T15:55:48.813Z,38.90
2022-08-11T15:58:34.312Z,39.20
2022-08-11T16:01:19.911Z,39.10
2022-08-11T16:04:09.235Z,39.10
2022-08-11T16:06:43.968Z,39.10
2022-08-11T16:09:19.870Z,39.50
2022-08-11T16:11:47.761Z,39.00
2022-08-11T16:14:33.512Z,39.20
2022-08-11T16:17:01.222Z,39.60
2022-08-11T16:19:35.645Z,39.50
2022-08-11T16:22:07.196Z,40.00
2022-08-11T16:27:03.404Z,39.90
2022-08-11T16:27:24.615Z,39.80
2022-08-11T16:29:52.374Z,40.00
2022-08-11T16:32:22.143Z,40.00
2022-08-11T16:35:15.837Z,39.80
2022-08-11T16:38:02.679Z,39.90
2022-08-11T16:40:30.350Z,40.50
2022-08-11T16:43:16.081Z,40.40
2022-08-11T16:46:01.643Z,40.00
2022-08-11T16:48:36.215Z,40.30
2022-08-11T16:51:06.121Z,40.40
2022-08-11T16:54:04.008Z,39.90
2022-08-11T16:56:25.032Z,40.00
2022-08-11T16:59:12.633Z,40.10
2022-08-11T17:01:40.895Z,41.00
2022-08-11T17:04:31.230Z,40.10
2022-08-11T17:07:23.958Z,39.80
2022-08-11T17:10:50.368Z,40.20
2022-08-11T17:13:12.954Z,39.70
2022-08-11T17:16:02.625Z,39.30
2022-08-11T17:18:43.149Z,39.00
2022-08-11T17:21:15.276Z,38.70
2022-08-11T17:23:50.430Z,38.90
2022-08-11T17:26:22.505Z,38.70
2022-08-11T17:28:52.276Z,38.60
2022-08-11T17:31:38.825Z,38.50
2022-08-11T17:34:24.747Z,38.50
2022-08-11T17:36:53.122Z,38.40
2022-08-11T17:39:21.013Z,38.30
2022-08-11T17:42:07.722Z,38.20
2022-08-11T17:44:53.083Z,38.20
2022-08-11T17:47:38.821Z,38.20
2022-08-11T17:50:09.334Z,38.20
2022-08-11T17:53:02.226Z,38.00
2022-08-11T17:55:51.698Z,38.10
2022-08-11T17:58:39.988Z,38.00
2022-08-11T18:01:09.627Z,38.00
2022-08-11T18:03:39.600Z,38.10
2022-08-11T18:06:12.568Z,38.00
2022-08-11T18:09:01.380Z,37.90
2022-08-11T18:12:09.987Z,37.90
2022-08-11T18:14:54.415Z,38.00
2022-08-11T18:17:40.120Z,37.90
2022-08-11T18:20:26.392Z,38.00
2022-08-11T18:23:11.889Z,38.00
2022-08-11T18:25:58.397Z,38.00
2022-08-11T18:28:45.380Z,37.90
2022-08-11T18:31:33.236Z,38.00
2022-08-11T18:34:21.196Z,38.00
2022-08-11T18:37:09.567Z,38.10
2022-08-11T18:40:08.260Z,38.00
2022-08-11T18:42:53.632Z,38.10
2022-08-11T18:45:46.121Z,38.10
2022-08-11T18:48:37.351Z,38.10
2022-08-11T18:51:30.724Z,38.10
2022-08-11T18:54:24.774Z,38.20
2022-08-11T18:57:10.259Z,38.20
2022-08-11T18:59:56.295Z,38.20
2022-08-11T19:02:48.974Z,38.10
2022-08-11T19:06:35.402Z,38.20
2022-08-11T19:08:42.155Z,38.30
2022-08-11T19:11:27.633Z,38.20
2022-08-11T19:14:13.959Z,38.30
2022-08-11T19:16:59.168Z,38.30
2022-08-11T19:19:47.529Z,38.30
2022-08-11T19:22:34.510Z,38.40
2022-08-11T19:25:25.179Z,38.30
2022-08-11T19:28:11.383Z,38.40
2022-08-11T19:30:56.818Z,38.40
2022-08-11T19:33:57.320Z,38.40
2022-08-11T19:36:47.374Z,38.40
2022-08-11T19:39:34.274Z,38.50
2022-08-11T19:42:19.423Z,38.50
2022-08-11T19:45:04.860Z,38.50
2022-08-11T19:47:59.117Z,38.50
2022-08-11T19:50:55.687Z,38.60
2022-08-11T19:53:40.955Z,38.80
2022-08-11T19:56:27.837Z,38.80
2022-08-11T19:59:13.283Z,38.90
2022-08-11T20:02:01.431Z,39.00
2022-08-11T20:04:59.518Z,39.10
2022-08-11T20:07:44.912Z,39.20
2022-08-11T20:10:30.507Z,39.30
2022-08-11T20:13:21.333Z,40.00
2022-08-11T20:16:07.199Z,39.30
2022-08-11T20:18:52.679Z,39.60
2022-08-11T20:21:38.070Z,39.50
2022-08-11T20:24:24.052Z,39.60
2022-08-11T20:27:18.941Z,39.60
2022-08-11T20:30:11.418Z,39.50
2022-08-11T20:32:56.888Z,39.60
2022-08-11T20:35:42.345Z,39.50
2022-08-11T20:38:27.870Z,39.60
2022-08-11T20:41:13.246Z,39.60
2022-08-11T20:44:08.136Z,39.60
2022-08-11T20:46:57.026Z,39.50
2022-08-11T20:49:50.391Z,39.60
2022-08-11T20:52:40.021Z,39.60
2022-08-11T20:58:48.045Z,39.50
2022-08-11T21:01:38.691Z,39.60
2022-08-11T21:04:25.689Z,39.50
2022-08-11T21:07:12.068Z,39.40
2022-08-11T21:10:09.739Z,39.50
2022-08-11T21:12:56.582Z,39.50
2022-08-11T21:16:01.433Z,39.50
2022-08-11T21:18:47.865Z,39.50
2022-08-11T21:21:45.461Z,39.50
2022-08-11T21:24:31.708Z,39.50
2022-08-11T21:27:21.790Z,39.50
2022-08-11T21:30:10.250Z,39.40
2022-08-11T21:32:55.759Z,39.30
2022-08-11T21:35:45.367Z,39.20
2022-08-11T21:38:32.692Z,39.40
2022-08-11T21:41:18.199Z,39.30
2022-08-11T21:44:03.658Z,39.30
2022-08-11T21:46:51.968Z,39.30
2022-08-11T21:49:37.414Z,39.20
2022-08-11T21:52:23.082Z,39.20
2022-08-11T21:55:09.943Z,39.30
2022-08-11T21:57:55.432Z,39.20
2022-08-11T22:00:40.798Z,39.20
2022-08-11T22:03:26.236Z,39.20
2022-08-11T22:06:12.094Z,39.40
2022-08-11T22:08:57.596Z,39.40
2022-08-11T22:11:44.424Z,39.30
2022-08-11T22:14:29.965Z,39.20
2022-08-11T22:17:15.332Z,39.10
2022-08-11T22:20:01.204Z,39.20
2022-08-11T22:22:52.099Z,39.10
2022-08-11T22:25:39.141Z,39.00
2022-08-11T22:28:38.166Z,39.00
2022-08-11T22:31:23.884Z,39.00
2022-08-11T22:34:09.251Z,39.10
2022-08-11T22:36:54.642Z,39.00
2022-08-11T22:39:40.288Z,38.90
2022-08-11T22:42:33.229Z,39.00
2022-08-11T22:45:20.891Z,39.00
2022-08-11T22:48:06.227Z,39.00
2022-08-11T22:50:51.739Z,38.90
2022-08-11T22:53:58.066Z,38.90
2022-08-11T22:56:42.974Z,38.90
2022-08-11T22:59:28.526Z,38.90
2022-08-11T23:02:15.296Z,38.80
2022-08-11T23:05:00.672Z,38.80
2022-08-11T23:07:50.856Z,38.90
2022-08-11T23:10:37.065Z,38.80
2022-08-11T23:13:22.603Z,38.70
2022-08-11T23:16:08.058Z,38.80
2022-08-11T23:18:54.823Z,38.70
2022-08-11T23:21:40.255Z,38.70
2022-08-11T23:24:25.619Z,38.70
2022-08-11T23:27:11.057Z,38.70
2022-08-11T23:29:56.649Z,38.70
2022-08-11T23:32:42.078Z,38.60
2022-08-11T23:35:38.959Z,38.60
2022-08-11T23:38:25.845Z,38.60
2022-08-11T23:41:11.391Z,38.70
2022-08-11T23:43:56.460Z,38.60
2022-08-11T23:46:42.180Z,38.60
2022-08-11T23:49:27.613Z,38.50
2022-08-11T23:52:14.363Z,38.50
2022-08-11T23:54:59.671Z,38.50
2022-08-11T23:57:49.281Z,38.50
